Date,TemperatureHighF,TemperatureAvgF,TemperatureLowF,DewpointHighF,DewpointAvgF,DewpointLowF,HumidityHigh,HumidityAvg,HumidityLow,PressureMaxIn,PressureMinIn,WindSpeedMaxMPH,WindSpeedAvgMPH,GustSpeedMaxMPH,PrecipitationSumIn
2013-5-1,82,70,63,57,49,43,72,48,30,29.68,29.56,8,2,14,0.00
2013-5-2,66,64,60,63,56,46,94,77,52,29.74,29.62,4,0,6,0.00
2013-5-3,62,49,36,61,47,34,95,93,87,29.62,29.50,6,1,10,0.00
2013-5-4,62,46,32,46,35,26,95,71,27,29.59,29.50,5,1,9,0.00
2013-5-5,61,50,43,46,40,27,97,72,30,29.56,29.50,7,1,10,0.00
2013-5-6,65,57,51,54,47,39,91,70,39,29.59,29.47,7,1,15,0.00
2013-5-7,80,63,48,59,46,36,96,60,22,29.65,29.56,6,1,8,0.00
2013-5-8,86,66,49,64,45,36,91,55,19,29.71,29.62,8,1,9,0.00
2013-5-9,82,70,58,57,49,41,86,52,25,29.71,29.59,11,3,16,0.00
2013-5-10,77,68,62,68,61,50,93,80,41,29.62,29.50,10,2,16,0.00
2013-5-11,77,66,56,63,48,32,96,60,22,29.68,29.53,8,2,11,0.00
2013-5-12,73,58,44,52,27,16,81,35,15,29.85,29.68,8,2,12,0.00
2013-5-13,84,60,40,46,35,26,84,46,18,29.91,29.77,8,1,10,0.00
2013-5-14,93,71,56,43,39,32,56,34,14,29.77,29.65,10,4,17,0.00
2013-5-15,86,73,60,45,40,32,54,32,19,29.77,29.59,12,4,17,0.00
2013-5-16,84,71,62,64,51,39,88,54,23,29.62,29.53,8,2,10,0.00
2013-5-17,87,70,65,70,60,50,92,71,32,29.59,29.50,8,2,10,0.00
2013-5-18,88,75,64,72,63,55,93,71,34,29.62,29.53,6,1,9,0.00
2013-5-19,92,79,70,70,58,45,91,56,24,29.62,29.50,9,4,13,0.00
2013-5-20,92,80,70,70,58,50,88,50,26,29.59,29.47,12,5,17,0.00
2013-5-21,81,71,63,70,64,50,95,79,49,29.59,29.38,8,2,13,0.00
2013-5-22,92,70,62,70,56,41,97,68,20,29.53,29.41,7,2,11,0.00
2013-5-23,87,72,60,68,51,37,93,55,20,29.74,29.53,6,1,8,0.00
2013-5-24,84,65,54,50,38,28,72,40,16,29.91,29.74,10,3,15,0.00
2013-5-25,84,67,49,54,41,32,87,45,16,29.91,29.77,5,1,8,0.00
2013-5-26,88,70,54,57,45,34,91,48,18,29.83,29.71,9,2,10,0.00
2013-5-27,91,75,62,59,50,39,71,46,18,29.74,29.62,10,3,14,0.00
2013-5-28,95,78,69,61,48,34,67,38,15,29.68,29.59,10,5,13,0.00
2013-5-29,92,78,64,57,50,39,66,40,19,29.68,29.56,9,4,13,0.00
2013-5-30,88,77,68,68,58,48,88,57,29,29.65,29.56,14,4,20,0.00
2013-5-31,94,78,70,68,62,54,87,61,27,29.62,29.47,9,4,17,0.00